This is the latest recevied weather packets stored in our database for station/object KBVX. If no packets are shown the sender has not sent any weather packets the latest 10 day(s).
| Time | Temp. | Humidity | Pressure | Rain* | Wind** | Luminosity | Snow |
|---|---|---|---|---|---|---|---|
| 1777418611 | 21.67° C | 88% | 1010.8 hPa | - | - | - | - |
| 1777418011 | 21.67° C | 88% | 1010.8 hPa | - | - | - | - |
| 1777417406 | 21.67° C | 88% | 1010.8 hPa | - | - | - | - |
| 1777416807 | 22.78° C | 88% | 1010.5 hPa | - | - | - | - |
| 1777416212 | 22.78° C | 88% | 1010.5 hPa | - | - | - | - |
| 1777415613 | 23.89° C | 83% | 1010.5 hPa | - | - | - | - |
| 1777415009 | 25.56° C | 74% | 1010.2 hPa | - | - | - | - |
| 1777414409 | 25.56° C | 74% | 1010.2 hPa | - | - | - | - |
| 1777413813 | 25.56° C | 74% | 1010.2 hPa | - | - | - | - |
| 1777413207 | 23.89° C | 88% | 1009.8 hPa | - | - | - | - |
| 1777412610 | 23.89° C | 88% | 1009.8 hPa | - | - | - | - |
| 1777412012 | 23.89° C | 88% | 1009.8 hPa | - | - | - | - |
| 1777411411 | 23.89° C | 88% | 1009.8 hPa | - | - | - | - |
| 1777410807 | 23.89° C | 88% | 1009.8 hPa | - | - | - | - |
| 1777410209 | 23.89° C | 88% | 1009.8 hPa | - | - | - | - |
| 1777409607 | 22.78° C | 94% | 1010.2 hPa | - | - | - | - |
| 1777409011 | 20.56° C | 94% | 1011.5 hPa | - | - | - | - |
| 1777408407 | 20.56° C | 94% | 1011.5 hPa | - | - | - | - |
| 1777407935 | 20.56° C | 94% | 1011.5 hPa | - | - | - | - |
| 1777407212 | 20.56° C | 94% | 1012.5 hPa | - | - | - | - |
| 1777406612 | 20.56° C | 94% | 1012.5 hPa | - | - | - | - |
| 1777406005 | 20.56° C | 88% | 1012.2 hPa | - | - | - | - |
| 1777405413 | 20.56° C | 94% | 1012.9 hPa | - | - | - | - |
| 1777404813 | 20.56° C | 88% | 1011.9 hPa | - | - | - | - |
| 1777404213 | 20.56° C | 88% | 1011.9 hPa | - | - | - | - |
* Rain since midnight (hover to see other rain measurements)
** Current wind speed in m/s (hover to see current wind gust speed)